Palm Springs International Airport Palm Springs US
ICAO: KPSP
IATA: PSP
Category: Medium
Scheduled Services: Yes

Elevation: 477 ft
TransAlt. 18000 ft.

Airport Communications:
APP/DEP:126.7
ATIS:118.25
CLNC DEL:128.35
CTAF:119.7
GND:121.9
RIVERSIDE RDO:115.5
TWR:119.7
UNICOM:122.95

KPSP Zoom In..

If you have problems with the map follow the link
https://www.worldairports.se/pages/airport.php?
ICAO=KPSP

Runways:

(A) RW 13L length 4952 ft width 75 ft
---- / hdg 130

(B) RW 13R length 10001 ft width 150 ft
---- / hdg 130

(C) RW 31L length 10001 ft width 150 ft
---- / hdg 310

(D) RW 31R length 4952 ft width 75 ft
---- / hdg 310

Location; KPSP
Day. 22 / Time. 14.53 Zulu
* Altimeter: 30.16
* Temperature: 11° c. 51.8°f.
* Wind from: 000° Speed 00 kn.
Dewpoint: 06° c.
Visibility: 10 Statute Miles.
Clouds: Clear (automated report).

KPSP 221453Z 00000KT 10SM CLR 11/06 A3016 RMK AO2 SLP215 T01110056 53010


Wind - Calm.

 
 
jpsmedia worldairports.se 2020   terms of use